Anzahl Datensätze: 287
min. Temperatur: 15.2 °C
max. Temperatur: 21.8 °C
max. Windgeschwindigkeit: 35.6 km/h
Niederschlagsumme: 9.6 mm
| Datum |
Zeit |
Temp °C |
Feuchte % |
Taupunkt °C |
Luftdruck hPa |
Wind km/h |
Windrichtung |
Strahlung w/m² |
Niederschlag mm |
|---|---|---|---|---|---|---|---|---|---|
| 01.08.2025 | 00:00 | 18.8 | 83 | 15.9 | 1013.5 | 6.1 | SSW | 0 | 0.0 |
| 01.08.2025 | 00:05 | 18.8 | 83 | 15.9 | 1013.4 | 8.3 | SSW | 0 | 0.0 |
| 01.08.2025 | 00:10 | 18.8 | 83 | 15.9 | 1013.4 | 4.3 | SW | 0 | 0.0 |
| 01.08.2025 | 00:15 | 18.8 | 82 | 15.7 | 1013.4 | 6.1 | SSW | 0 | 0.0 |
| 01.08.2025 | 00:20 | 18.8 | 82 | 15.7 | 1013.5 | 4.3 | SSW | 0 | 0.0 |
| 01.08.2025 | 00:25 | 18.8 | 82 | 15.7 | 1013.5 | 6.1 | SSW | 0 | 0.0 |
| 01.08.2025 | 00:30 | 18.8 | 82 | 15.7 | 1013.4 | 0.0 | SSW | 0 | 0.0 |
| 01.08.2025 | 00:35 | 18.7 | 82 | 15.6 | 1013.4 | 6.1 | SSW | 0 | 0.0 |
| 01.08.2025 | 00:40 | 18.7 | 83 | 15.8 | 1013.5 | 4.3 | SSW | 0 | 0.0 |
| 01.08.2025 | 00:45 | 18.6 | 82 | 15.5 | 1013.4 | 6.1 | SSW | 0 | 0.0 |
| 01.08.2025 | 00:50 | 18.6 | 83 | 15.7 | 1013.4 | 6.1 | SW | 0 | 0.0 |
| 01.08.2025 | 00:55 | 18.5 | 83 | 15.6 | 1013.4 | 6.1 | SW | 0 | 0.0 |
| 01.08.2025 | 01:00 | 18.5 | 83 | 15.6 | 1013.4 | 4.3 | SW | 0 | 0.0 |
| 01.08.2025 | 01:05 | 18.5 | 83 | 15.6 | 1013.3 | 4.3 | SW | 0 | 0.0 |
| 01.08.2025 | 01:10 | 18.5 | 83 | 15.6 | 1013.3 | 4.3 | SW | 0 | 0.0 |
| 01.08.2025 | 01:15 | 18.5 | 83 | 15.6 | 1013.3 | 0.0 | SW | 0 | 0.0 |
| 01.08.2025 | 01:20 | 18.4 | 83 | 15.5 | 1013.3 | 1.8 | SW | 0 | 0.0 |
| 01.08.2025 | 01:25 | 18.4 | 84 | 15.6 | 1013.3 | 0.0 | SW | 0 | 0.0 |
| 01.08.2025 | 01:30 | 18.4 | 84 | 15.6 | 1013.3 | 4.3 | SW | 0 | 0.0 |
| 01.08.2025 | 01:35 | 18.4 | 84 | 15.6 | 1013.3 | 4.3 | SW | 0 | 0.0 |
| 01.08.2025 | 01:40 | 18.4 | 84 | 15.6 | 1013.3 | 8.3 | SW | 0 | 0.0 |
| 01.08.2025 | 01:45 | 18.4 | 84 | 15.6 | 1013.2 | 1.8 | SW | 0 | 0.0 |
| 01.08.2025 | 01:50 | 18.3 | 85 | 15.7 | 1013.2 | 6.1 | SW | 0 | 0.0 |
| 01.08.2025 | 01:55 | 18.3 | 85 | 15.7 | 1013.1 | 1.8 | SSW | 0 | 0.0 |
| 01.08.2025 | 02:00 | 18.2 | 86 | 15.8 | 1013.1 | 6.1 | SW | 0 | 0.0 |
| 01.08.2025 | 02:05 | 18.2 | 86 | 15.8 | 1013.0 | 4.3 | SW | 0 | 0.0 |
| 01.08.2025 | 02:10 | 18.1 | 86 | 15.7 | 1012.9 | 6.1 | SW | 0 | 0.0 |
| 01.08.2025 | 02:15 | 18.1 | 86 | 15.7 | 1012.9 | 4.3 | SW | 0 | 0.0 |
| 01.08.2025 | 02:20 | 18.1 | 86 | 15.7 | 1012.9 | 8.3 | SW | 0 | 0.0 |
| 01.08.2025 | 02:25 | 18.1 | 86 | 15.7 | 1012.9 | 0.0 | SW | 0 | 0.0 |
| 01.08.2025 | 02:30 | 18.1 | 86 | 15.7 | 1012.9 | 4.3 | SW | 0 | 0.0 |
| 01.08.2025 | 02:36 | 18.1 | 86 | 15.7 | 1012.9 | 0.0 | SW | 0 | 0.0 |
| 01.08.2025 | 02:41 | 17.9 | 86 | 15.5 | 1012.8 | 0.0 | SW | 0 | 0.0 |
| 01.08.2025 | 02:46 | 18.0 | 86 | 15.6 | 1012.8 | 0.0 | SW | 0 | 0.0 |
| 01.08.2025 | 02:51 | 18.1 | 86 | 15.7 | 1012.7 | 0.0 | SW | 0 | 0.0 |
| 01.08.2025 | 02:56 | 18.1 | 86 | 15.7 | 1012.7 | 0.0 | SW | 0 | 0.0 |
| 01.08.2025 | 03:01 | 18.1 | 86 | 15.7 | 1012.7 | 0.0 | SW | 0 | 0.0 |
| 01.08.2025 | 03:06 | 18.0 | 86 | 15.6 | 1012.6 | 0.0 | SW | 0 | 0.0 |
| 01.08.2025 | 03:11 | 17.8 | 87 | 15.6 | 1012.7 | 0.0 | SW | 0 | 0.0 |
| 01.08.2025 | 03:16 | 17.8 | 88 | 15.8 | 1012.6 | 0.0 | SW | 0 | 0.0 |
| 01.08.2025 | 03:21 | 17.9 | 87 | 15.7 | 1012.5 | 4.3 | SSW | 0 | 0.0 |
| 01.08.2025 | 03:26 | 17.9 | 87 | 15.7 | 1012.6 | 6.1 | SSW | 0 | 0.0 |
| 01.08.2025 | 03:31 | 18.0 | 87 | 15.8 | 1012.6 | 6.1 | SSW | 0 | 0.0 |
| 01.08.2025 | 03:36 | 17.9 | 87 | 15.7 | 1012.6 | 4.3 | WSW | 0 | 0.0 |
| 01.08.2025 | 03:41 | 17.9 | 87 | 15.7 | 1012.6 | 4.3 | WSW | 0 | 0.0 |
| 01.08.2025 | 03:46 | 17.9 | 87 | 15.7 | 1012.5 | 6.1 | SW | 0 | 0.0 |
| 01.08.2025 | 03:51 | 17.8 | 88 | 15.8 | 1012.5 | 6.1 | WSW | 0 | 0.0 |
| 01.08.2025 | 03:56 | 17.8 | 88 | 15.8 | 1012.6 | 4.3 | W | 0 | 0.0 |
| 01.08.2025 | 04:01 | 17.8 | 88 | 15.8 | 1012.5 | 1.8 | WSW | 0 | 0.0 |
| 01.08.2025 | 04:06 | 17.7 | 88 | 15.7 | 1012.4 | 1.8 | SW | 0 | 0.0 |
| 01.08.2025 | 04:11 | 17.6 | 89 | 15.8 | 1012.3 | 6.1 | SW | 0 | 0.0 |
| 01.08.2025 | 04:16 | 17.6 | 89 | 15.8 | 1012.1 | 1.8 | SW | 0 | 0.0 |
| 01.08.2025 | 04:21 | 17.6 | 89 | 15.8 | 1012.2 | 6.1 | SSW | 0 | 0.0 |
| 01.08.2025 | 04:26 | 17.4 | 89 | 15.6 | 1012.2 | 4.3 | SW | 0 | 0.0 |
| 01.08.2025 | 04:31 | 17.4 | 89 | 15.6 | 1012.1 | 4.3 | SSW | 0 | 0.0 |
| 01.08.2025 | 04:36 | 17.4 | 89 | 15.6 | 1012.2 | 4.3 | SSW | 0 | 0.0 |
| 01.08.2025 | 04:41 | 17.5 | 89 | 15.7 | 1012.2 | 8.3 | SW | 0 | 0.0 |
| 01.08.2025 | 04:46 | 17.4 | 89 | 15.6 | 1012.1 | 8.3 | SSW | 0 | 0.0 |
| 01.08.2025 | 04:51 | 17.4 | 89 | 15.6 | 1012.1 | 8.3 | SSW | 0 | 0.0 |
| 01.08.2025 | 04:56 | 17.5 | 89 | 15.7 | 1012.1 | 6.1 | SW | 0 | 0.0 |
| 01.08.2025 | 05:01 | 17.5 | 89 | 15.7 | 1012.1 | 4.3 | SW | 0 | 0.0 |
| 01.08.2025 | 05:06 | 17.5 | 89 | 15.7 | 1012.1 | 6.1 | SSW | 0 | 0.0 |
| 01.08.2025 | 05:11 | 17.5 | 89 | 15.7 | 1012.1 | 4.3 | WSW | 0 | 0.0 |
| 01.08.2025 | 05:16 | 17.5 | 89 | 15.7 | 1012.2 | 6.1 | W | 0 | 0.0 |
| 01.08.2025 | 05:22 | 17.6 | 89 | 15.8 | 1012.3 | 4.3 | WNW | 0 | 0.0 |
| 01.08.2025 | 05:27 | 17.6 | 89 | 15.8 | 1012.3 | 6.1 | WSW | 0 | 0.0 |
| 01.08.2025 | 05:32 | 17.6 | 90 | 15.9 | 1012.3 | 4.3 | WNW | 0 | 0.8 |
| 01.08.2025 | 05:37 | 17.2 | 91 | 15.7 | 1012.2 | 4.3 | NW | 0 | 1.6 |
| 01.08.2025 | 05:42 | 17.1 | 92 | 15.8 | 1012.1 | 4.3 | WSW | 0 | 1.6 |
| 01.08.2025 | 05:47 | 16.9 | 92 | 15.6 | 1012.1 | 0.0 | WSW | 0 | 1.6 |
| 01.08.2025 | 05:52 | 16.9 | 93 | 15.8 | 1012.0 | 0.0 | WSW | 0 | 1.6 |
| 01.08.2025 | 05:57 | 16.8 | 93 | 15.7 | 1012.0 | 0.0 | WSW | 0 | 1.6 |
| 01.08.2025 | 06:02 | 16.8 | 93 | 15.7 | 1012.1 | 1.8 | WSW | 0 | 1.6 |
| 01.08.2025 | 06:07 | 16.7 | 94 | 15.7 | 1012.0 | 4.3 | N | 0 | 1.6 |
| 01.08.2025 | 06:12 | 16.7 | 94 | 15.7 | 1012.0 | 0.0 | N | 5 | 1.6 |
| 01.08.2025 | 06:17 | 16.6 | 94 | 15.6 | 1012.0 | 0.0 | N | 5 | 1.6 |
| 01.08.2025 | 06:22 | 16.7 | 94 | 15.7 | 1011.9 | 0.0 | N | 7 | 1.6 |
| 01.08.2025 | 06:27 | 16.7 | 94 | 15.7 | 1011.8 | 0.0 | N | 9 | 1.6 |
| 01.08.2025 | 06:32 | 16.6 | 94 | 15.6 | 1011.8 | 1.8 | SSO | 11 | 1.6 |
| 01.08.2025 | 06:37 | 16.5 | 94 | 15.5 | 1011.6 | 0.0 | SSO | 18 | 1.6 |
| 01.08.2025 | 06:42 | 16.4 | 94 | 15.4 | 1011.6 | 4.3 | S | 23 | 1.6 |
| 01.08.2025 | 06:47 | 16.4 | 95 | 15.6 | 1011.6 | 4.3 | S | 28 | 1.6 |
| 01.08.2025 | 06:52 | 16.5 | 94 | 15.5 | 1011.5 | 4.3 | S | 35 | 1.6 |
| 01.08.2025 | 06:57 | 16.5 | 94 | 15.5 | 1011.5 | 4.3 | S | 37 | 1.6 |
| 01.08.2025 | 07:02 | 16.5 | 94 | 15.5 | 1011.5 | 4.3 | S | 40 | 1.6 |
| 01.08.2025 | 07:07 | 16.6 | 95 | 15.8 | 1011.5 | 4.3 | S | 53 | 1.6 |
| 01.08.2025 | 07:12 | 16.7 | 95 | 15.9 | 1011.7 | 4.3 | S | 83 | 1.6 |
| 01.08.2025 | 07:17 | 16.9 | 95 | 16.1 | 1011.8 | 1.8 | S | 76 | 1.6 |
| 01.08.2025 | 07:22 | 17.1 | 95 | 16.3 | 1011.9 | 6.1 | WNW | 74 | 1.6 |
| 01.08.2025 | 07:27 | 17.2 | 94 | 16.2 | 1011.8 | 6.1 | SSW | 95 | 1.6 |
| 01.08.2025 | 07:32 | 17.2 | 94 | 16.2 | 1012.0 | 6.1 | SSW | 91 | 1.6 |
| 01.08.2025 | 07:37 | 17.3 | 94 | 16.3 | 1012.0 | 12.6 | SSW | 90 | 1.6 |
| 01.08.2025 | 07:42 | 17.2 | 94 | 16.2 | 1012.1 | 8.3 | SSW | 86 | 1.6 |
| 01.08.2025 | 07:47 | 17.2 | 94 | 16.2 | 1012.1 | 4.3 | SSW | 72 | 1.6 |
| 01.08.2025 | 07:52 | 17.3 | 94 | 16.3 | 1012.1 | 8.3 | SSW | 42 | 1.6 |
| 01.08.2025 | 07:57 | 17.2 | 94 | 16.2 | 1011.8 | 8.3 | S | 54 | 1.6 |
| 01.08.2025 | 08:02 | 17.2 | 94 | 16.2 | 1011.8 | 8.3 | S | 69 | 1.6 |
| 01.08.2025 | 08:07 | 17.2 | 93 | 16.1 | 1011.8 | 12.6 | WSW | 79 | 1.6 |
| 01.08.2025 | 08:12 | 17.2 | 94 | 16.2 | 1011.7 | 6.1 | SSW | 86 | 1.6 |
| 01.08.2025 | 08:18 | 17.3 | 93 | 16.2 | 1011.7 | 8.3 | SSW | 105 | 1.6 |
| 01.08.2025 | 08:23 | 17.3 | 93 | 16.2 | 1011.8 | 4.3 | SSW | 116 | 1.6 |
| 01.08.2025 | 08:28 | 17.4 | 93 | 16.3 | 1011.7 | 6.1 | SSW | 190 | 1.6 |
| 01.08.2025 | 08:33 | 17.5 | 93 | 16.4 | 1011.9 | 6.1 | SW | 139 | 1.6 |
| 01.08.2025 | 08:38 | 17.7 | 93 | 16.6 | 1012.0 | 1.8 | WSW | 149 | 1.6 |
| 01.08.2025 | 08:43 | 17.8 | 93 | 16.7 | 1012.1 | 6.1 | SSW | 121 | 1.6 |
| 01.08.2025 | 08:48 | 17.9 | 93 | 16.8 | 1012.2 | 6.1 | SW | 86 | 1.6 |
| 01.08.2025 | 08:53 | 17.9 | 92 | 16.6 | 1012.2 | 10.4 | S | 62 | 1.6 |
| 01.08.2025 | 08:58 | 17.9 | 92 | 16.6 | 1012.3 | 8.3 | SSW | 76 | 1.6 |
| 01.08.2025 | 09:03 | 17.8 | 92 | 16.5 | 1012.3 | 8.3 | SSO | 121 | 1.6 |
| 01.08.2025 | 09:08 | 17.7 | 91 | 16.2 | 1012.1 | 14.4 | S | 271 | 1.6 |
| 01.08.2025 | 09:13 | 17.8 | 90 | 16.1 | 1012.1 | 4.3 | SSW | 207 | 1.6 |
| 01.08.2025 | 09:18 | 17.9 | 91 | 16.4 | 1012.0 | 23.0 | S | 151 | 1.6 |
| 01.08.2025 | 09:23 | 17.6 | 89 | 15.8 | 1012.0 | 14.4 | S | 167 | 1.6 |
| 01.08.2025 | 09:28 | 17.5 | 90 | 15.8 | 1012.0 | 14.4 | SSW | 229 | 1.6 |
| 01.08.2025 | 09:33 | 17.8 | 90 | 16.1 | 1012.1 | 8.3 | SSW | 510 | 1.6 |
| 01.08.2025 | 09:38 | 18.4 | 89 | 16.6 | 1012.0 | 10.4 | SSW | 427 | 1.6 |
| 01.08.2025 | 09:43 | 18.8 | 88 | 16.8 | 1012.1 | 14.4 | SW | 761 | 1.6 |
| 01.08.2025 | 09:48 | 18.9 | 87 | 16.7 | 1012.1 | 10.4 | SW | 313 | 1.6 |
| 01.08.2025 | 09:53 | 18.8 | 89 | 16.9 | 1012.1 | 10.4 | SSW | 413 | 1.6 |
| 01.08.2025 | 09:58 | 18.9 | 87 | 16.7 | 1012.1 | 14.4 | SSW | 306 | 1.6 |
| 01.08.2025 | 10:03 | 19.2 | 87 | 17.0 | 1011.9 | 10.4 | S | 294 | 1.6 |
| 01.08.2025 | 10:08 | 19.2 | 87 | 17.0 | 1011.9 | 6.1 | SW | 234 | 1.6 |
| 01.08.2025 | 10:13 | 19.6 | 86 | 17.2 | 1011.9 | 6.1 | SW | 606 | 1.6 |
| 01.08.2025 | 10:18 | 19.8 | 86 | 17.4 | 1011.8 | 12.6 | S | 471 | 1.6 |
| 01.08.2025 | 10:23 | 19.9 | 84 | 17.1 | 1011.9 | 16.9 | S | 471 | 1.6 |
| 01.08.2025 | 10:28 | 20.1 | 87 | 17.9 | 1011.9 | 16.9 | S | 686 | 1.6 |
| 01.08.2025 | 10:33 | 20.3 | 84 | 17.5 | 1012.0 | 12.6 | SW | 881 | 1.6 |
| 01.08.2025 | 10:38 | 20.8 | 84 | 18.0 | 1011.9 | 14.4 | SW | 860 | 1.6 |
| 01.08.2025 | 10:43 | 20.8 | 82 | 17.6 | 1011.8 | 14.4 | SSW | 858 | 1.6 |
| 01.08.2025 | 10:48 | 20.6 | 84 | 17.8 | 1011.9 | 14.4 | SW | 237 | 1.6 |
| 01.08.2025 | 10:53 | 20.8 | 83 | 17.8 | 1011.8 | 10.4 | SW | 696 | 1.6 |
| 01.08.2025 | 10:58 | 21.2 | 82 | 18.0 | 1011.8 | 16.9 | S | 937 | 1.6 |
| 01.08.2025 | 11:04 | 21.2 | 81 | 17.8 | 1011.8 | 14.4 | S | 343 | 1.6 |
| 01.08.2025 | 11:09 | 20.9 | 81 | 17.5 | 1011.7 | 8.3 | W | 320 | 1.6 |
| 01.08.2025 | 11:14 | 21.4 | 81 | 18.0 | 1011.7 | 12.6 | SW | 960 | 1.6 |
| 01.08.2025 | 11:19 | 21.3 | 81 | 17.9 | 1011.6 | 14.4 | SW | 230 | 1.6 |
| 01.08.2025 | 11:24 | 20.8 | 82 | 17.6 | 1011.6 | 14.4 | SSW | 329 | 1.6 |
| 01.08.2025 | 11:29 | 20.5 | 82 | 17.3 | 1011.5 | 14.4 | S | 149 | 1.6 |
| 01.08.2025 | 11:34 | 20.3 | 83 | 17.3 | 1011.4 | 12.6 | SSW | 297 | 1.6 |
| 01.08.2025 | 11:39 | 21.3 | 82 | 18.1 | 1011.3 | 16.9 | W | 332 | 1.6 |
| 01.08.2025 | 11:44 | 21.8 | 81 | 18.4 | 1011.2 | 12.6 | SSO | 1095 | 1.6 |
| 01.08.2025 | 11:49 | 21.8 | 80 | 18.2 | 1011.2 | 21.2 | SSW | 257 | 1.6 |
| 01.08.2025 | 11:54 | 21.1 | 82 | 17.9 | 1011.2 | 14.4 | S | 283 | 1.6 |
| 01.08.2025 | 11:59 | 20.7 | 84 | 17.9 | 1011.1 | 10.4 | SSW | 478 | 1.6 |
| 01.08.2025 | 12:04 | 20.7 | 84 | 17.9 | 1011.3 | 18.7 | SW | 179 | 1.6 |
| 01.08.2025 | 12:09 | 20.6 | 85 | 18.0 | 1011.3 | 10.4 | WSW | 269 | 1.6 |
| 01.08.2025 | 12:14 | 20.8 | 84 | 18.0 | 1011.3 | 18.7 | SW | 181 | 1.6 |
| 01.08.2025 | 12:19 | 20.6 | 84 | 17.8 | 1011.3 | 10.4 | SSW | 257 | 1.6 |
| 01.08.2025 | 12:24 | 20.4 | 83 | 17.4 | 1011.2 | 1.8 | SO | 227 | 1.6 |
| 01.08.2025 | 12:29 | 20.4 | 84 | 17.6 | 1011.1 | 16.9 | SSO | 172 | 1.6 |
| 01.08.2025 | 12:34 | 20.4 | 83 | 17.4 | 1011.0 | 31.3 | S | 90 | 1.6 |
| 01.08.2025 | 12:39 | 19.9 | 86 | 17.5 | 1011.0 | 8.3 | SSO | 107 | 1.8 |
| 01.08.2025 | 12:44 | 19.4 | 88 | 17.4 | 1011.2 | 4.3 | WNW | 146 | 2.4 |
| 01.08.2025 | 12:49 | 19.1 | 91 | 17.6 | 1011.2 | 12.6 | NNW | 113 | 2.8 |
| 01.08.2025 | 12:54 | 18.8 | 91 | 17.3 | 1011.0 | 6.1 | NNW | 67 | 2.8 |
| 01.08.2025 | 12:59 | 18.8 | 92 | 17.5 | 1010.9 | 4.3 | NNW | 113 | 2.8 |
| 01.08.2025 | 13:04 | 18.9 | 92 | 17.6 | 1011.2 | 4.3 | WSW | 84 | 2.8 |
| 01.08.2025 | 13:09 | 18.9 | 92 | 17.6 | 1011.5 | 6.1 | WNW | 25 | 2.8 |
| 01.08.2025 | 13:14 | 18.4 | 90 | 16.7 | 1011.5 | 8.3 | N | 28 | 5.0 |
| 01.08.2025 | 13:19 | 17.8 | 91 | 16.3 | 1011.9 | 8.3 | O | 58 | 7.0 |
| 01.08.2025 | 13:24 | 17.6 | 92 | 16.3 | 1011.7 | 8.3 | ONO | 146 | 8.6 |
| 01.08.2025 | 13:29 | 17.7 | 94 | 16.7 | 1011.7 | 6.1 | OSO | 352 | 8.6 |
| 01.08.2025 | 13:34 | 17.8 | 93 | 16.7 | 1011.7 | 1.8 | NO | 279 | 8.6 |
| 01.08.2025 | 13:39 | 17.6 | 92 | 16.3 | 1011.7 | 0.0 | SW | 244 | 8.8 |
| 01.08.2025 | 13:45 | 17.8 | 93 | 16.7 | 1011.5 | 4.3 | SW | 269 | 8.8 |
| 01.08.2025 | 13:50 | 17.8 | 92 | 16.5 | 1011.5 | 6.1 | SW | 352 | 8.8 |
| 01.08.2025 | 13:55 | 18.0 | 92 | 16.7 | 1011.7 | 0.0 | SW | 311 | 8.8 |
| 01.08.2025 | 14:00 | 18.1 | 87 | 15.9 | 1011.6 | 0.0 | W | 257 | 8.8 |
| 01.08.2025 | 14:05 | 18.2 | 87 | 16.0 | 1011.7 | 0.0 | WNW | 227 | 8.8 |
| 01.08.2025 | 14:10 | 18.4 | 90 | 16.7 | 1011.6 | 4.3 | NW | 236 | 8.8 |
| 01.08.2025 | 14:15 | 18.5 | 89 | 16.7 | 1011.4 | 4.3 | SW | 281 | 8.8 |
| 01.08.2025 | 14:20 | 18.6 | 85 | 16.0 | 1011.2 | 4.3 | S | 410 | 8.8 |
| 01.08.2025 | 14:25 | 19.4 | 86 | 17.0 | 1011.1 | 6.1 | SW | 1048 | 8.8 |
| 01.08.2025 | 14:30 | 19.9 | 81 | 16.5 | 1011.1 | 1.8 | W | 898 | 8.8 |
| 01.08.2025 | 14:35 | 20.3 | 83 | 17.3 | 1011.1 | 0.0 | W | 840 | 8.8 |
| 01.08.2025 | 14:40 | 20.6 | 80 | 17.0 | 1011.0 | 6.1 | W | 830 | 8.8 |
| 01.08.2025 | 14:45 | 21.2 | 81 | 17.8 | 1011.1 | 1.8 | WSW | 826 | 8.8 |
| 01.08.2025 | 14:50 | 21.2 | 79 | 17.4 | 1011.2 | 4.3 | WSW | 840 | 8.8 |
| 01.08.2025 | 14:55 | 21.7 | 78 | 17.7 | 1011.2 | 8.3 | WNW | 538 | 8.8 |
| 01.08.2025 | 15:00 | 21.5 | 73 | 16.5 | 1011.2 | 6.1 | WSW | 404 | 8.8 |
| 01.08.2025 | 15:05 | 21.8 | 76 | 17.4 | 1011.1 | 6.1 | WNW | 434 | 8.8 |
| 01.08.2025 | 15:10 | 21.8 | 75 | 17.2 | 1011.0 | 6.1 | W | 457 | 8.8 |
| 01.08.2025 | 15:15 | 21.3 | 77 | 17.1 | 1011.0 | 6.1 | NW | 362 | 8.8 |
| 01.08.2025 | 15:20 | 21.2 | 81 | 17.8 | 1010.9 | 6.1 | W | 253 | 8.8 |
| 01.08.2025 | 15:25 | 21.2 | 77 | 17.0 | 1011.0 | 1.8 | WSW | 276 | 8.8 |
| 01.08.2025 | 15:30 | 21.0 | 79 | 17.2 | 1011.0 | 6.1 | SSW | 206 | 8.8 |
| 01.08.2025 | 15:35 | 21.0 | 80 | 17.4 | 1010.9 | 6.1 | WSW | 257 | 8.8 |
| 01.08.2025 | 15:40 | 20.9 | 80 | 17.3 | 1010.9 | 4.3 | SSW | 260 | 8.8 |
| 01.08.2025 | 15:45 | 20.9 | 81 | 17.5 | 1010.9 | 6.1 | SW | 178 | 8.8 |
| 01.08.2025 | 15:50 | 20.6 | 81 | 17.2 | 1010.9 | 8.3 | SW | 178 | 8.8 |
| 01.08.2025 | 15:55 | 20.4 | 81 | 17.0 | 1010.9 | 6.1 | SSW | 183 | 8.8 |
| 01.08.2025 | 16:00 | 20.3 | 81 | 16.9 | 1010.8 | 14.4 | SSW | 174 | 8.8 |
| 01.08.2025 | 16:05 | 20.3 | 82 | 17.1 | 1010.8 | 16.9 | SW | 193 | 8.8 |
| 01.08.2025 | 16:10 | 20.3 | 82 | 17.1 | 1010.8 | 8.3 | S | 139 | 8.8 |
| 01.08.2025 | 16:15 | 20.1 | 83 | 17.1 | 1010.8 | 1.8 | S | 179 | 8.8 |
| 01.08.2025 | 16:20 | 20.3 | 84 | 17.5 | 1010.7 | 6.1 | S | 220 | 8.8 |
| 01.08.2025 | 16:25 | 20.3 | 80 | 16.7 | 1010.7 | 14.4 | SSW | 207 | 8.8 |
| 01.08.2025 | 16:30 | 20.2 | 82 | 17.0 | 1010.6 | 18.7 | SSW | 181 | 8.8 |
| 01.08.2025 | 16:35 | 19.9 | 82 | 16.7 | 1010.6 | 8.3 | SSW | 183 | 8.8 |
| 01.08.2025 | 16:40 | 19.9 | 83 | 16.9 | 1010.6 | 8.3 | SSW | 239 | 8.8 |
| 01.08.2025 | 16:45 | 20.1 | 85 | 17.5 | 1010.5 | 12.6 | SW | 786 | 8.8 |
| 01.08.2025 | 16:51 | 20.6 | 84 | 17.8 | 1010.5 | 12.6 | SSW | 436 | 8.8 |
| 01.08.2025 | 16:56 | 20.3 | 84 | 17.5 | 1010.5 | 10.4 | SSW | 383 | 8.8 |
| 01.08.2025 | 17:01 | 20.1 | 85 | 17.5 | 1010.5 | 8.3 | S | 223 | 8.8 |
| 01.08.2025 | 17:06 | 19.8 | 86 | 17.4 | 1010.6 | 10.4 | S | 167 | 8.8 |
| 01.08.2025 | 17:11 | 19.7 | 87 | 17.5 | 1010.7 | 10.4 | S | 144 | 8.8 |
| 01.08.2025 | 17:16 | 19.6 | 87 | 17.4 | 1010.5 | 8.3 | SW | 134 | 8.8 |
| 01.08.2025 | 17:21 | 19.4 | 86 | 17.0 | 1010.5 | 18.7 | SSW | 179 | 8.8 |
| 01.08.2025 | 17:26 | 19.4 | 86 | 17.0 | 1010.5 | 10.4 | SW | 232 | 8.8 |
| 01.08.2025 | 17:31 | 19.6 | 86 | 17.2 | 1010.4 | 8.3 | S | 359 | 8.8 |
| 01.08.2025 | 17:36 | 20.1 | 85 | 17.5 | 1010.4 | 8.3 | S | 271 | 8.8 |
| 01.08.2025 | 17:41 | 20.1 | 85 | 17.5 | 1010.4 | 12.6 | S | 199 | 8.8 |
| 01.08.2025 | 17:46 | 19.7 | 85 | 17.1 | 1010.5 | 14.4 | SSW | 153 | 8.8 |
| 01.08.2025 | 17:51 | 19.3 | 86 | 16.9 | 1010.5 | 12.6 | WSW | 141 | 8.8 |
| 01.08.2025 | 17:56 | 19.2 | 86 | 16.8 | 1010.6 | 12.6 | WSW | 91 | 8.8 |
| 01.08.2025 | 18:01 | 19.1 | 86 | 16.7 | 1010.5 | 14.4 | SSW | 100 | 8.8 |
| 01.08.2025 | 18:06 | 19.1 | 86 | 16.7 | 1010.4 | 16.9 | SW | 116 | 8.8 |
| 01.08.2025 | 18:11 | 18.9 | 86 | 16.5 | 1010.3 | 4.3 | SSW | 114 | 8.8 |
| 01.08.2025 | 18:16 | 18.9 | 85 | 16.3 | 1010.1 | 10.4 | SSW | 116 | 8.8 |
| 01.08.2025 | 18:21 | 18.9 | 86 | 16.5 | 1010.0 | 14.4 | S | 183 | 8.8 |
| 01.08.2025 | 18:26 | 19.1 | 86 | 16.7 | 1009.9 | 8.3 | SSW | 371 | 8.8 |
| 01.08.2025 | 18:31 | 19.3 | 86 | 16.9 | 1009.9 | 8.3 | SSO | 207 | 8.8 |
| 01.08.2025 | 18:36 | 19.3 | 86 | 16.9 | 1010.1 | 6.1 | W | 120 | 8.8 |
| 01.08.2025 | 18:41 | 19.1 | 84 | 16.3 | 1010.2 | 21.2 | SSW | 116 | 8.8 |
| 01.08.2025 | 18:46 | 18.9 | 84 | 16.1 | 1010.3 | 8.3 | SSW | 98 | 8.8 |
| 01.08.2025 | 18:51 | 18.8 | 85 | 16.2 | 1010.1 | 8.3 | SW | 77 | 8.8 |
| 01.08.2025 | 18:56 | 18.8 | 84 | 16.0 | 1010.3 | 4.3 | WSW | 81 | 8.8 |
| 01.08.2025 | 19:01 | 18.7 | 85 | 16.1 | 1010.5 | 6.1 | W | 90 | 8.8 |
| 01.08.2025 | 19:06 | 18.7 | 85 | 16.1 | 1010.5 | 4.3 | WSW | 72 | 8.8 |
| 01.08.2025 | 19:11 | 18.6 | 86 | 16.2 | 1010.5 | 8.3 | WSW | 58 | 8.8 |
| 01.08.2025 | 19:16 | 18.6 | 86 | 16.2 | 1010.5 | 1.8 | WSW | 65 | 8.8 |
| 01.08.2025 | 19:21 | 18.5 | 87 | 16.3 | 1010.6 | 8.3 | SSW | 63 | 8.8 |
| 01.08.2025 | 19:26 | 18.4 | 87 | 16.2 | 1010.6 | 8.3 | SW | 51 | 8.8 |
| 01.08.2025 | 19:31 | 18.4 | 87 | 16.2 | 1010.7 | 14.4 | SW | 32 | 8.8 |
| 01.08.2025 | 19:36 | 18.4 | 88 | 16.4 | 1010.7 | 12.6 | SSW | 21 | 8.8 |
| 01.08.2025 | 19:41 | 18.3 | 88 | 16.3 | 1010.7 | 14.4 | SSW | 18 | 8.8 |
| 01.08.2025 | 19:47 | 18.2 | 89 | 16.4 | 1010.7 | 8.3 | SSW | 16 | 8.8 |
| 01.08.2025 | 19:52 | 18.1 | 90 | 16.4 | 1010.7 | 4.3 | SSW | 14 | 8.8 |
| 01.08.2025 | 19:57 | 18.0 | 90 | 16.3 | 1010.6 | 6.1 | SW | 11 | 8.8 |
| 01.08.2025 | 20:02 | 17.9 | 90 | 16.2 | 1010.7 | 6.1 | SSW | 7 | 8.8 |
| 01.08.2025 | 20:07 | 17.8 | 91 | 16.3 | 1010.8 | 6.1 | SSW | 7 | 8.8 |
| 01.08.2025 | 20:12 | 17.6 | 91 | 16.1 | 1010.9 | 6.1 | S | 7 | 8.8 |
| 01.08.2025 | 20:17 | 17.5 | 92 | 16.2 | 1011.0 | 10.4 | SW | 11 | 9.0 |
| 01.08.2025 | 20:22 | 17.3 | 92 | 16.0 | 1010.9 | 12.6 | SW | 16 | 9.2 |
| 01.08.2025 | 20:27 | 17.2 | 92 | 15.9 | 1010.9 | 8.3 | SW | 14 | 9.2 |
| 01.08.2025 | 20:32 | 17.1 | 92 | 15.8 | 1011.0 | 12.6 | S | 14 | 9.4 |
| 01.08.2025 | 20:37 | 16.9 | 93 | 15.8 | 1010.9 | 8.3 | SW | 16 | 9.4 |
| 01.08.2025 | 20:42 | 16.8 | 93 | 15.7 | 1010.9 | 6.1 | SSO | 19 | 9.4 |
| 01.08.2025 | 20:47 | 16.8 | 93 | 15.7 | 1010.9 | 10.4 | SW | 12 | 9.4 |
| 01.08.2025 | 20:52 | 16.7 | 93 | 15.6 | 1011.0 | 14.4 | SW | 7 | 9.4 |
| 01.08.2025 | 20:57 | 16.7 | 93 | 15.6 | 1010.9 | 10.4 | SW | 5 | 9.6 |
| 01.08.2025 | 21:02 | 16.7 | 94 | 15.7 | 1010.8 | 12.6 | SSW | 0 | 9.6 |
| 01.08.2025 | 21:07 | 16.7 | 94 | 15.7 | 1010.9 | 10.4 | SW | 0 | 9.6 |
| 01.08.2025 | 21:12 | 16.7 | 94 | 15.7 | 1011.0 | 10.4 | SSW | 0 | 9.6 |
| 01.08.2025 | 21:17 | 16.6 | 94 | 15.6 | 1011.0 | 18.7 | SSW | 0 | 9.6 |
| 01.08.2025 | 21:22 | 16.6 | 94 | 15.6 | 1011.0 | 12.6 | SSW | 0 | 9.6 |
| 01.08.2025 | 21:27 | 16.6 | 94 | 15.6 | 1010.9 | 21.2 | S | 0 | 9.6 |
| 01.08.2025 | 21:32 | 16.4 | 94 | 15.4 | 1010.9 | 10.4 | SW | 0 | 9.6 |
| 01.08.2025 | 21:37 | 16.4 | 94 | 15.4 | 1011.1 | 12.6 | SSW | 0 | 9.6 |
| 01.08.2025 | 21:42 | 16.3 | 94 | 15.3 | 1011.2 | 1.8 | SW | 0 | 9.6 |
| 01.08.2025 | 21:47 | 16.3 | 95 | 15.5 | 1011.3 | 1.8 | W | 0 | 9.6 |
| 01.08.2025 | 21:52 | 16.3 | 95 | 15.5 | 1011.3 | 12.6 | W | 0 | 9.6 |
| 01.08.2025 | 21:57 | 16.3 | 95 | 15.5 | 1011.4 | 8.3 | SSW | 0 | 9.6 |
| 01.08.2025 | 22:02 | 16.2 | 95 | 15.4 | 1011.3 | 4.3 | WNW | 0 | 9.6 |
| 01.08.2025 | 22:07 | 16.2 | 95 | 15.4 | 1011.4 | 1.8 | W | 0 | 9.6 |
| 01.08.2025 | 22:12 | 16.2 | 95 | 15.4 | 1011.5 | 1.8 | WSW | 0 | 9.6 |
| 01.08.2025 | 22:17 | 16.2 | 95 | 15.4 | 1011.5 | 4.3 | W | 0 | 9.6 |
| 01.08.2025 | 22:22 | 16.2 | 95 | 15.4 | 1011.6 | 0.0 | W | 0 | 9.6 |
| 01.08.2025 | 22:27 | 16.2 | 95 | 15.4 | 1011.7 | 6.1 | W | 0 | 9.6 |
| 01.08.2025 | 22:32 | 16.2 | 95 | 15.4 | 1011.7 | 1.8 | W | 0 | 9.6 |
| 01.08.2025 | 22:37 | 16.1 | 95 | 15.3 | 1011.7 | 6.1 | WNW | 0 | 9.6 |
| 01.08.2025 | 22:42 | 16.0 | 95 | 15.2 | 1011.7 | 4.3 | NW | 0 | 9.6 |
| 01.08.2025 | 22:48 | 15.8 | 95 | 15.0 | 1011.7 | 1.8 | NW | 0 | 9.6 |
| 01.08.2025 | 22:53 | 15.7 | 95 | 14.9 | 1011.6 | 0.0 | W | 0 | 9.6 |
| 01.08.2025 | 22:58 | 15.6 | 95 | 14.8 | 1011.7 | 0.0 | WNW | 0 | 9.6 |
| 01.08.2025 | 23:03 | 15.5 | 95 | 14.7 | 1011.7 | 4.3 | SW | 0 | 9.6 |
| 01.08.2025 | 23:08 | 15.5 | 95 | 14.7 | 1011.8 | 4.3 | SW | 0 | 9.6 |
| 01.08.2025 | 23:13 | 15.4 | 95 | 14.6 | 1011.9 | 6.1 | SW | 0 | 9.6 |
| 01.08.2025 | 23:18 | 15.5 | 95 | 14.7 | 1011.9 | 1.8 | SW | 0 | 9.6 |
| 01.08.2025 | 23:23 | 15.4 | 95 | 14.6 | 1011.9 | 0.0 | SW | 0 | 9.6 |
| 01.08.2025 | 23:28 | 15.3 | 95 | 14.5 | 1012.0 | 0.0 | SW | 0 | 9.6 |
| 01.08.2025 | 23:33 | 15.2 | 95 | 14.4 | 1012.0 | 0.0 | SW | 0 | 9.6 |
| 01.08.2025 | 23:38 | 15.2 | 95 | 14.4 | 1011.9 | 0.0 | SW | 0 | 9.6 |
| 01.08.2025 | 23:43 | 15.2 | 95 | 14.4 | 1012.0 | 0.0 | SW | 0 | 9.6 |
| 01.08.2025 | 23:48 | 15.2 | 95 | 14.4 | 1011.8 | 4.3 | SW | 0 | 9.6 |
| 01.08.2025 | 23:53 | 15.2 | 95 | 14.4 | 1011.7 | 6.1 | SW | 0 | 9.6 |
| 01.08.2025 | 23:58 | 15.2 | 95 | 14.4 | 1011.7 | 0.0 | SW | 0 | 9.6 |